sensor_id;sensor_type;location;lat;lon;timestamp;temperature;humidity
17128;DHT22;8679;50.842;4.322;2023-05-29T00:02:14;15.10;99.90
17128;DHT22;8679;50.842;4.322;2023-05-29T00:04:39;15.10;99.90
17128;DHT22;8679;50.842;4.322;2023-05-29T00:07:05;15.00;99.90
17128;DHT22;8679;50.842;4.322;2023-05-29T00:09:31;15.00;99.90
17128;DHT22;8679;50.842;4.322;2023-05-29T00:11:57;14.90;99.90
17128;DHT22;8679;50.842;4.322;2023-05-29T00:14:22;14.90;99.90
17128;DHT22;8679;50.842;4.322;2023-05-29T00:16:50;14.90;99.90
17128;DHT22;8679;50.842;4.322;2023-05-29T00:19:16;14.80;99.90
17128;DHT22;8679;50.842;4.322;2023-05-29T00:21:45;14.80;99.90
17128;DHT22;8679;50.842;4.322;2023-05-29T00:24:16;14.80;99.90
17128;DHT22;8679;50.842;4.322;2023-05-29T00:26:43;14.70;99.90
17128;DHT22;8679;50.842;4.322;2023-05-29T00:29:08;14.70;99.90
17128;DHT22;8679;50.842;4.322;2023-05-29T00:31:34;14.70;99.90
17128;DHT22;8679;50.842;4.322;2023-05-29T00:34:01;14.60;99.90
17128;DHT22;8679;50.842;4.322;2023-05-29T00:36:27;14.60;99.90
17128;DHT22;8679;50.842;4.322;2023-05-29T00:38:54;14.60;99.90
17128;DHT22;8679;50.842;4.322;2023-05-29T00:41:19;14.50;99.90
17128;DHT22;8679;50.842;4.322;2023-05-29T00:43:45;14.40;99.90
17128;DHT22;8679;50.842;4.322;2023-05-29T00:46:13;14.50;99.90
17128;DHT22;8679;50.842;4.322;2023-05-29T00:48:39;14.40;99.90
17128;DHT22;8679;50.842;4.322;2023-05-29T00:51:07;14.40;99.90
17128;DHT22;8679;50.842;4.322;2023-05-29T00:53:34;14.40;99.90
17128;DHT22;8679;50.842;4.322;2023-05-29T00:56:00;14.30;99.90
17128;DHT22;8679;50.842;4.322;2023-05-29T00:58:27;14.30;99.90
17128;DHT22;8679;50.842;4.322;2023-05-29T01:00:53;14.20;99.90
17128;DHT22;8679;50.842;4.322;2023-05-29T01:03:20;14.10;99.90
17128;DHT22;8679;50.842;4.322;2023-05-29T01:05:48;14.10;99.90
17128;DHT22;8679;50.842;4.322;2023-05-29T01:08:14;14.00;99.90
17128;DHT22;8679;50.842;4.322;2023-05-29T01:10:40;14.00;99.90
17128;DHT22;8679;50.842;4.322;2023-05-29T01:13:23;14.00;99.90
17128;DHT22;8679;50.842;4.322;2023-05-29T01:16:12;13.90;99.90
17128;DHT22;8679;50.842;4.322;2023-05-29T01:18:51;13.90;99.90
17128;DHT22;8679;50.842;4.322;2023-05-29T01:21:27;13.80;99.90
17128;DHT22;8679;50.842;4.322;2023-05-29T01:26:55;13.70;99.90
17128;DHT22;8679;50.842;4.322;2023-05-29T01:29:25;13.70;99.90
17128;DHT22;8679;50.842;4.322;2023-05-29T01:31:51;13.70;99.90
17128;DHT22;8679;50.842;4.322;2023-05-29T01:34:19;13.70;99.90
17128;DHT22;8679;50.842;4.322;2023-05-29T01:36:44;13.60;99.90
17128;DHT22;8679;50.842;4.322;2023-05-29T01:39:12;13.60;99.90
17128;DHT22;8679;50.842;4.322;2023-05-29T01:41:38;13.60;99.90
17128;DHT22;8679;50.842;4.322;2023-05-29T01:44:07;13.60;99.90
17128;DHT22;8679;50.842;4.322;2023-05-29T01:46:37;13.60;99.90
17128;DHT22;8679;50.842;4.322;2023-05-29T01:49:04;13.60;99.90
17128;DHT22;8679;50.842;4.322;2023-05-29T01:51:30;13.60;99.90
17128;DHT22;8679;50.842;4.322;2023-05-29T01:53:57;13.50;99.90
17128;DHT22;8679;50.842;4.322;2023-05-29T01:56:25;13.50;99.90
17128;DHT22;8679;50.842;4.322;2023-05-29T01:58:55;13.60;99.90
17128;DHT22;8679;50.842;4.322;2023-05-29T02:01:22;13.60;99.90
17128;DHT22;8679;50.842;4.322;2023-05-29T02:03:51;13.60;99.90
17128;DHT22;8679;50.842;4.322;2023-05-29T02:06:17;13.60;99.90
17128;DHT22;8679;50.842;4.322;2023-05-29T02:08:43;13.60;99.90
17128;DHT22;8679;50.842;4.322;2023-05-29T02:11:08;13.60;99.90
17128;DHT22;8679;50.842;4.322;2023-05-29T02:13:34;13.50;99.90
17128;DHT22;8679;50.842;4.322;2023-05-29T02:16:00;13.50;99.90
17128;DHT22;8679;50.842;4.322;2023-05-29T02:18:26;13.50;99.90
17128;DHT22;8679;50.842;4.322;2023-05-29T02:20:52;13.50;99.90
17128;DHT22;8679;50.842;4.322;2023-05-29T02:23:18;13.50;99.90
17128;DHT22;8679;50.842;4.322;2023-05-29T02:25:45;13.50;99.90
17128;DHT22;8679;50.842;4.322;2023-05-29T02:28:11;13.50;99.90
17128;DHT22;8679;50.842;4.322;2023-05-29T02:30:37;13.40;99.90
17128;DHT22;8679;50.842;4.322;2023-05-29T02:33:02;13.40;99.90
17128;DHT22;8679;50.842;4.322;2023-05-29T02:35:28;13.50;99.90
17128;DHT22;8679;50.842;4.322;2023-05-29T02:37:54;13.40;99.90
17128;DHT22;8679;50.842;4.322;2023-05-29T02:40:20;13.30;99.90
17128;DHT22;8679;50.842;4.322;2023-05-29T02:42:46;13.40;99.90
17128;DHT22;8679;50.842;4.322;2023-05-29T02:45:12;13.30;99.90
17128;DHT22;8679;50.842;4.322;2023-05-29T02:47:38;13.30;99.90
17128;DHT22;8679;50.842;4.322;2023-05-29T02:50:04;13.20;99.90
17128;DHT22;8679;50.842;4.322;2023-05-29T02:52:31;13.20;99.90
17128;DHT22;8679;50.842;4.322;2023-05-29T02:54:57;13.10;99.90
17128;DHT22;8679;50.842;4.322;2023-05-29T02:57:24;13.00;99.90
17128;DHT22;8679;50.842;4.322;2023-05-29T02:59:50;13.00;99.90
17128;DHT22;8679;50.842;4.322;2023-05-29T03:02:17;12.90;99.90
17128;DHT22;8679;50.842;4.322;2023-05-29T03:04:44;12.80;99.90
17128;DHT22;8679;50.842;4.322;2023-05-29T03:07:09;12.80;99.90
17128;DHT22;8679;50.842;4.322;2023-05-29T03:09:35;12.70;99.90
17128;DHT22;8679;50.842;4.322;2023-05-29T03:12:01;12.70;99.90
17128;DHT22;8679;50.842;4.322;2023-05-29T03:14:27;12.70;99.90
17128;DHT22;8679;50.842;4.322;2023-05-29T03:16:53;12.60;99.90
17128;DHT22;8679;50.842;4.322;2023-05-29T03:19:20;12.50;99.90
17128;DHT22;8679;50.842;4.322;2023-05-29T03:21:46;12.50;99.90
17128;DHT22;8679;50.842;4.322;2023-05-29T03:24:12;12.40;99.90
17128;DHT22;8679;50.842;4.322;2023-05-29T03:26:39;12.40;99.90
17128;DHT22;8679;50.842;4.322;2023-05-29T03:29:05;12.30;99.90
17128;DHT22;8679;50.842;4.322;2023-05-29T03:31:31;12.20;99.90
17128;DHT22;8679;50.842;4.322;2023-05-29T03:33:58;12.20;99.90
17128;DHT22;8679;50.842;4.322;2023-05-29T03:36:24;12.20;99.90
17128;DHT22;8679;50.842;4.322;2023-05-29T03:38:50;12.20;99.90
17128;DHT22;8679;50.842;4.322;2023-05-29T03:41:15;12.10;99.90
17128;DHT22;8679;50.842;4.322;2023-05-29T03:43:41;12.00;99.90
17128;DHT22;8679;50.842;4.322;2023-05-29T03:46:07;12.00;99.90
17128;DHT22;8679;50.842;4.322;2023-05-29T03:48:33;12.00;99.90
17128;DHT22;8679;50.842;4.322;2023-05-29T03:50:58;12.00;99.90
17128;DHT22;8679;50.842;4.322;2023-05-29T03:53:24;11.90;99.90
17128;DHT22;8679;50.842;4.322;2023-05-29T03:55:50;12.00;99.90
17128;DHT22;8679;50.842;4.322;2023-05-29T03:58:16;11.90;99.90
17128;DHT22;8679;50.842;4.322;2023-05-29T04:00:41;11.90;99.90
17128;DHT22;8679;50.842;4.322;2023-05-29T04:03:07;11.90;99.90
17128;DHT22;8679;50.842;4.322;2023-05-29T04:05:33;11.90;99.90
17128;DHT22;8679;50.842;4.322;2023-05-29T04:07:59;11.90;99.90
17128;DHT22;8679;50.842;4.322;2023-05-29T04:10:24;11.80;99.90
17128;DHT22;8679;50.842;4.322;2023-05-29T04:12:51;11.80;99.90
17128;DHT22;8679;50.842;4.322;2023-05-29T04:15:16;11.80;99.90
17128;DHT22;8679;50.842;4.322;2023-05-29T04:17:42;11.80;99.90
17128;DHT22;8679;50.842;4.322;2023-05-29T04:20:08;11.80;99.90
17128;DHT22;8679;50.842;4.322;2023-05-29T04:22:36;11.80;99.90
17128;DHT22;8679;50.842;4.322;2023-05-29T04:25:02;11.80;99.90
17128;DHT22;8679;50.842;4.322;2023-05-29T04:27:32;11.80;99.90
17128;DHT22;8679;50.842;4.322;2023-05-29T04:30:07;11.80;99.90
17128;DHT22;8679;50.842;4.322;2023-05-29T04:32:33;11.80;99.90
17128;DHT22;8679;50.842;4.322;2023-05-29T04:34:59;11.80;99.90
17128;DHT22;8679;50.842;4.322;2023-05-29T04:37:28;11.80;99.90
17128;DHT22;8679;50.842;4.322;2023-05-29T04:39:55;11.90;99.90
17128;DHT22;8679;50.842;4.322;2023-05-29T04:42:22;11.90;99.90
17128;DHT22;8679;50.842;4.322;2023-05-29T04:44:48;11.90;99.90
17128;DHT22;8679;50.842;4.322;2023-05-29T04:47:14;11.90;99.90
17128;DHT22;8679;50.842;4.322;2023-05-29T04:49:41;11.90;99.90
17128;DHT22;8679;50.842;4.322;2023-05-29T04:52:07;11.90;99.90
17128;DHT22;8679;50.842;4.322;2023-05-29T04:54:34;11.90;99.90
17128;DHT22;8679;50.842;4.322;2023-05-29T04:57:00;11.90;99.90
17128;DHT22;8679;50.842;4.322;2023-05-29T04:59:26;11.90;99.90
17128;DHT22;8679;50.842;4.322;2023-05-29T05:01:52;12.00;99.90
17128;DHT22;8679;50.842;4.322;2023-05-29T05:04:18;12.00;99.90
17128;DHT22;8679;50.842;4.322;2023-05-29T05:06:43;12.00;99.90
17128;DHT22;8679;50.842;4.322;2023-05-29T05:09:09;12.00;99.90
17128;DHT22;8679;50.842;4.322;2023-05-29T05:11:35;12.00;99.90
17128;DHT22;8679;50.842;4.322;2023-05-29T05:14:01;12.10;99.90
17128;DHT22;8679;50.842;4.322;2023-05-29T05:16:27;12.10;99.90
17128;DHT22;8679;50.842;4.322;2023-05-29T05:18:52;12.10;99.90
17128;DHT22;8679;50.842;4.322;2023-05-29T05:21:18;12.10;99.90
17128;DHT22;8679;50.842;4.322;2023-05-29T05:23:45;12.20;99.90
17128;DHT22;8679;50.842;4.322;2023-05-29T05:26:11;12.20;99.90
17128;DHT22;8679;50.842;4.322;2023-05-29T05:28:37;12.20;99.90
17128;DHT22;8679;50.842;4.322;2023-05-29T05:31:02;12.20;99.90
17128;DHT22;8679;50.842;4.322;2023-05-29T05:33:28;12.20;99.90
17128;DHT22;8679;50.842;4.322;2023-05-29T05:35:54;12.30;99.90
17128;DHT22;8679;50.842;4.322;2023-05-29T05:38:19;12.30;99.90
17128;DHT22;8679;50.842;4.322;2023-05-29T05:40:45;12.40;99.90
17128;DHT22;8679;50.842;4.322;2023-05-29T05:43:11;12.40;99.90
17128;DHT22;8679;50.842;4.322;2023-05-29T05:45:36;12.40;99.90
17128;DHT22;8679;50.842;4.322;2023-05-29T05:48:07;12.50;99.90
17128;DHT22;8679;50.842;4.322;2023-05-29T05:50:33;12.50;99.90
17128;DHT22;8679;50.842;4.322;2023-05-29T05:52:59;12.50;99.90
17128;DHT22;8679;50.842;4.322;2023-05-29T05:55:25;12.50;99.90
17128;DHT22;8679;50.842;4.322;2023-05-29T05:57:51;12.50;99.90
17128;DHT22;8679;50.842;4.322;2023-05-29T06:00:17;12.60;99.90
17128;DHT22;8679;50.842;4.322;2023-05-29T06:02:43;12.60;99.90
17128;DHT22;8679;50.842;4.322;2023-05-29T06:05:10;12.60;99.90
17128;DHT22;8679;50.842;4.322;2023-05-29T06:07:37;12.70;99.90
17128;DHT22;8679;50.842;4.322;2023-05-29T06:10:04;12.80;99.90
17128;DHT22;8679;50.842;4.322;2023-05-29T06:12:30;12.80;99.90
17128;DHT22;8679;50.842;4.322;2023-05-29T06:14:56;12.90;99.90
17128;DHT22;8679;50.842;4.322;2023-05-29T06:17:22;13.00;99.90
17128;DHT22;8679;50.842;4.322;2023-05-29T06:19:48;13.00;99.90
17128;DHT22;8679;50.842;4.322;2023-05-29T06:22:14;13.00;99.90
17128;DHT22;8679;50.842;4.322;2023-05-29T06:24:41;13.00;99.90
17128;DHT22;8679;50.842;4.322;2023-05-29T06:27:06;13.00;99.90
17128;DHT22;8679;50.842;4.322;2023-05-29T06:29:33;13.10;99.90
17128;DHT22;8679;50.842;4.322;2023-05-29T06:31:59;13.10;99.90
17128;DHT22;8679;50.842;4.322;2023-05-29T06:34:24;13.20;99.90
17128;DHT22;8679;50.842;4.322;2023-05-29T06:36:50;13.20;99.90
17128;DHT22;8679;50.842;4.322;2023-05-29T06:39:16;13.30;99.90
17128;DHT22;8679;50.842;4.322;2023-05-29T06:41:43;13.30;99.90
17128;DHT22;8679;50.842;4.322;2023-05-29T06:44:09;13.30;99.90
17128;DHT22;8679;50.842;4.322;2023-05-29T06:46:34;13.40;99.90
17128;DHT22;8679;50.842;4.322;2023-05-29T06:49:00;13.50;99.90
17128;DHT22;8679;50.842;4.322;2023-05-29T06:51:26;13.60;99.90
17128;DHT22;8679;50.842;4.322;2023-05-29T06:53:51;13.60;99.90
17128;DHT22;8679;50.842;4.322;2023-05-29T06:56:17;13.60;99.90
17128;DHT22;8679;50.842;4.322;2023-05-29T06:58:42;13.70;99.90
17128;DHT22;8679;50.842;4.322;2023-05-29T07:01:09;13.80;99.90
17128;DHT22;8679;50.842;4.322;2023-05-29T07:03:35;13.80;99.90
17128;DHT22;8679;50.842;4.322;2023-05-29T07:06:02;13.80;99.90
17128;DHT22;8679;50.842;4.322;2023-05-29T07:08:28;13.90;99.90
17128;DHT22;8679;50.842;4.322;2023-05-29T07:10:54;13.90;99.90
17128;DHT22;8679;50.842;4.322;2023-05-29T07:13:20;14.00;99.90
17128;DHT22;8679;50.842;4.322;2023-05-29T07:15:46;14.00;99.90
17128;DHT22;8679;50.842;4.322;2023-05-29T07:18:13;14.10;99.90
17128;DHT22;8679;50.842;4.322;2023-05-29T07:20:39;14.20;99.90
17128;DHT22;8679;50.842;4.322;2023-05-29T07:23:04;14.30;99.90
17128;DHT22;8679;50.842;4.322;2023-05-29T07:25:30;14.30;99.90
17128;DHT22;8679;50.842;4.322;2023-05-29T07:27:57;14.30;99.90
17128;DHT22;8679;50.842;4.322;2023-05-29T07:30:23;14.30;99.90
17128;DHT22;8679;50.842;4.322;2023-05-29T07:32:49;14.40;99.90
17128;DHT22;8679;50.842;4.322;2023-05-29T07:35:15;14.50;99.90
17128;DHT22;8679;50.842;4.322;2023-05-29T07:37:40;14.50;99.90
17128;DHT22;8679;50.842;4.322;2023-05-29T07:40:07;14.60;99.90
17128;DHT22;8679;50.842;4.322;2023-05-29T07:42:33;14.60;99.90
17128;DHT22;8679;50.842;4.322;2023-05-29T07:44:59;14.70;99.90
17128;DHT22;8679;50.842;4.322;2023-05-29T07:47:25;14.80;99.90
17128;DHT22;8679;50.842;4.322;2023-05-29T07:49:51;14.90;99.90
17128;DHT22;8679;50.842;4.322;2023-05-29T07:52:18;14.90;99.90
17128;DHT22;8679;50.842;4.322;2023-05-29T07:54:43;15.00;99.90
17128;DHT22;8679;50.842;4.322;2023-05-29T07:57:09;15.00;99.90
17128;DHT22;8679;50.842;4.322;2023-05-29T07:59:40;15.20;99.90
17128;DHT22;8679;50.842;4.322;2023-05-29T08:02:08;15.30;99.90
17128;DHT22;8679;50.842;4.322;2023-05-29T08:04:33;15.40;99.90
17128;DHT22;8679;50.842;4.322;2023-05-29T08:07:00;15.40;99.90
17128;DHT22;8679;50.842;4.322;2023-05-29T08:09:26;15.50;99.90
17128;DHT22;8679;50.842;4.322;2023-05-29T08:11:52;15.50;99.90
17128;DHT22;8679;50.842;4.322;2023-05-29T08:14:18;15.60;99.90
17128;DHT22;8679;50.842;4.322;2023-05-29T08:16:44;15.60;99.90
17128;DHT22;8679;50.842;4.322;2023-05-29T08:19:09;15.80;99.90
17128;DHT22;8679;50.842;4.322;2023-05-29T08:21:35;15.80;99.90
17128;DHT22;8679;50.842;4.322;2023-05-29T08:24:03;15.80;99.90
17128;DHT22;8679;50.842;4.322;2023-05-29T08:26:32;15.90;99.90
17128;DHT22;8679;50.842;4.322;2023-05-29T08:28:58;15.90;99.90
17128;DHT22;8679;50.842;4.322;2023-05-29T08:31:24;16.00;99.90
17128;DHT22;8679;50.842;4.322;2023-05-29T08:33:51;16.00;99.90
17128;DHT22;8679;50.842;4.322;2023-05-29T08:36:17;16.10;99.90
17128;DHT22;8679;50.842;4.322;2023-05-29T08:38:43;16.20;99.90
17128;DHT22;8679;50.842;4.322;2023-05-29T08:41:11;16.30;99.90
17128;DHT22;8679;50.842;4.322;2023-05-29T08:43:41;16.30;99.90
17128;DHT22;8679;50.842;4.322;2023-05-29T08:46:08;16.30;99.90
17128;DHT22;8679;50.842;4.322;2023-05-29T08:48:40;16.30;99.90
17128;DHT22;8679;50.842;4.322;2023-05-29T08:51:07;16.30;99.90
17128;DHT22;8679;50.842;4.322;2023-05-29T08:53:35;16.40;99.90
17128;DHT22;8679;50.842;4.322;2023-05-29T08:56:01;16.50;99.90
17128;DHT22;8679;50.842;4.322;2023-05-29T08:58:28;16.50;99.90
17128;DHT22;8679;50.842;4.322;2023-05-29T09:00:53;16.60;99.90
17128;DHT22;8679;50.842;4.322;2023-05-29T09:03:20;16.70;99.90
17128;DHT22;8679;50.842;4.322;2023-05-29T09:05:48;16.70;99.90
17128;DHT22;8679;50.842;4.322;2023-05-29T09:08:14;16.70;99.90
17128;DHT22;8679;50.842;4.322;2023-05-29T09:10:44;16.90;99.90
17128;DHT22;8679;50.842;4.322;2023-05-29T09:13:11;17.10;99.90
17128;DHT22;8679;50.842;4.322;2023-05-29T09:15:37;17.20;99.90
17128;DHT22;8679;50.842;4.322;2023-05-29T09:18:05;17.30;99.90
17128;DHT22;8679;50.842;4.322;2023-05-29T09:20:31;17.20;99.90
17128;DHT22;8679;50.842;4.322;2023-05-29T09:23:03;17.10;99.90
17128;DHT22;8679;50.842;4.322;2023-05-29T09:25:33;17.10;99.90
17128;DHT22;8679;50.842;4.322;2023-05-29T09:28:02;17.10;99.90
17128;DHT22;8679;50.842;4.322;2023-05-29T09:30:45;17.20;99.90
17128;DHT22;8679;50.842;4.322;2023-05-29T09:33:14;17.30;99.90
17128;DHT22;8679;50.842;4.322;2023-05-29T09:38:06;17.40;99.90
17128;DHT22;8679;50.842;4.322;2023-05-29T09:40:34;17.40;99.90
17128;DHT22;8679;50.842;4.322;2023-05-29T09:43:14;17.40;99.90
17128;DHT22;8679;50.842;4.322;2023-05-29T09:45:46;17.50;99.90
17128;DHT22;8679;50.842;4.322;2023-05-29T09:48:14;17.60;99.90
17128;DHT22;8679;50.842;4.322;2023-05-29T09:50:41;17.60;99.90
17128;DHT22;8679;50.842;4.322;2023-05-29T09:53:20;17.60;99.90
17128;DHT22;8679;50.842;4.322;2023-05-29T09:55:49;17.70;99.90
17128;DHT22;8679;50.842;4.322;2023-05-29T09:58:17;17.70;99.90
17128;DHT22;8679;50.842;4.322;2023-05-29T10:00:44;17.80;99.90
17128;DHT22;8679;50.842;4.322;2023-05-29T10:03:10;17.90;99.90
17128;DHT22;8679;50.842;4.322;2023-05-29T10:05:50;17.90;99.90
17128;DHT22;8679;50.842;4.322;2023-05-29T10:08:18;18.00;99.90
17128;DHT22;8679;50.842;4.322;2023-05-29T10:10:47;18.10;99.90
17128;DHT22;8679;50.842;4.322;2023-05-29T10:13:15;18.10;99.90
17128;DHT22;8679;50.842;4.322;2023-05-29T10:15:44;18.10;99.90
17128;DHT22;8679;50.842;4.322;2023-05-29T10:18:29;18.10;99.90
17128;DHT22;8679;50.842;4.322;2023-05-29T10:20:57;18.20;99.90
17128;DHT22;8679;50.842;4.322;2023-05-29T10:23:25;18.30;99.90
17128;DHT22;8679;50.842;4.322;2023-05-29T10:25:58;18.40;99.90
17128;DHT22;8679;50.842;4.322;2023-05-29T10:28:26;18.40;99.90
17128;DHT22;8679;50.842;4.322;2023-05-29T10:31:06;18.50;99.90
17128;DHT22;8679;50.842;4.322;2023-05-29T10:38:35;18.70;99.90
17128;DHT22;8679;50.842;4.322;2023-05-29T10:43:58;18.90;99.90
17128;DHT22;8679;50.842;4.322;2023-05-29T10:49:21;19.20;99.90
17128;DHT22;8679;50.842;4.322;2023-05-29T10:51:47;19.10;99.90
17128;DHT22;8679;50.842;4.322;2023-05-29T10:54:14;19.10;99.90
17128;DHT22;8679;50.842;4.322;2023-05-29T10:56:44;19.20;99.90
17128;DHT22;8679;50.842;4.322;2023-05-29T10:59:10;19.30;99.90
17128;DHT22;8679;50.842;4.322;2023-05-29T11:01:39;19.30;99.90
17128;DHT22;8679;50.842;4.322;2023-05-29T11:06:46;19.40;99.90
17128;DHT22;8679;50.842;4.322;2023-05-29T11:12:15;19.40;99.90
17128;DHT22;8679;50.842;4.322;2023-05-29T11:14:56;19.50;99.90
17128;DHT22;8679;50.842;4.322;2023-05-29T11:20:00;19.80;99.90
17128;DHT22;8679;50.842;4.322;2023-05-29T11:22:34;19.90;99.90
17128;DHT22;8679;50.842;4.322;2023-05-29T11:25:07;20.00;99.90
17128;DHT22;8679;50.842;4.322;2023-05-29T11:27:33;19.90;99.90
17128;DHT22;8679;50.842;4.322;2023-05-29T11:30:00;19.80;99.90
17128;DHT22;8679;50.842;4.322;2023-05-29T11:32:27;19.90;99.90
17128;DHT22;8679;50.842;4.322;2023-05-29T11:34:56;20.00;99.90
17128;DHT22;8679;50.842;4.322;2023-05-29T11:37:24;20.20;99.90
17128;DHT22;8679;50.842;4.322;2023-05-29T11:39:51;20.30;99.90
17128;DHT22;8679;50.842;4.322;2023-05-29T11:42:17;20.40;99.90
17128;DHT22;8679;50.842;4.322;2023-05-29T11:44:42;20.60;99.90
17128;DHT22;8679;50.842;4.322;2023-05-29T11:47:08;20.80;99.90
17128;DHT22;8679;50.842;4.322;2023-05-29T11:49:35;20.90;99.90
17128;DHT22;8679;50.842;4.322;2023-05-29T11:54:33;21.00;99.90
17128;DHT22;8679;50.842;4.322;2023-05-29T11:57:00;21.10;99.90
17128;DHT22;8679;50.842;4.322;2023-05-29T11:59:29;21.30;99.90
17128;DHT22;8679;50.842;4.322;2023-05-29T12:01:55;21.40;99.90
17128;DHT22;8679;50.842;4.322;2023-05-29T12:04:21;21.70;99.90
17128;DHT22;8679;50.842;4.322;2023-05-29T12:06:46;21.90;99.90
17128;DHT22;8679;50.842;4.322;2023-05-29T12:09:28;22.10;99.90
17128;DHT22;8679;50.842;4.322;2023-05-29T12:12:04;22.00;99.90
17128;DHT22;8679;50.842;4.322;2023-05-29T12:14:30;22.10;99.90
17128;DHT22;8679;50.842;4.322;2023-05-29T12:16:56;22.10;99.90
17128;DHT22;8679;50.842;4.322;2023-05-29T12:19:21;22.30;99.90
17128;DHT22;8679;50.842;4.322;2023-05-29T12:21:47;22.50;99.90
17128;DHT22;8679;50.842;4.322;2023-05-29T12:24:13;22.70;99.90
17128;DHT22;8679;50.842;4.322;2023-05-29T12:26:39;23.00;99.90
17128;DHT22;8679;50.842;4.322;2023-05-29T12:29:05;23.10;99.90
17128;DHT22;8679;50.842;4.322;2023-05-29T12:31:31;23.10;99.90
17128;DHT22;8679;50.842;4.322;2023-05-29T12:34:02;23.10;99.90
17128;DHT22;8679;50.842;4.322;2023-05-29T12:36:32;23.40;99.90
17128;DHT22;8679;50.842;4.322;2023-05-29T12:38:58;23.60;99.90
17128;DHT22;8679;50.842;4.322;2023-05-29T12:41:27;24.20;99.90
17128;DHT22;8679;50.842;4.322;2023-05-29T12:43:55;24.20;99.90
17128;DHT22;8679;50.842;4.322;2023-05-29T12:46:22;24.30;99.90
17128;DHT22;8679;50.842;4.322;2023-05-29T12:48:48;24.60;99.90
17128;DHT22;8679;50.842;4.322;2023-05-29T12:51:17;25.10;99.90
17128;DHT22;8679;50.842;4.322;2023-05-29T12:53:43;25.50;99.90
17128;DHT22;8679;50.842;4.322;2023-05-29T12:56:09;25.60;98.90
17128;DHT22;8679;50.842;4.322;2023-05-29T12:58:34;25.80;97.00
17128;DHT22;8679;50.842;4.322;2023-05-29T13:01:00;26.10;95.10
17128;DHT22;8679;50.842;4.322;2023-05-29T13:03:26;26.10;94.70
17128;DHT22;8679;50.842;4.322;2023-05-29T13:05:52;26.50;93.80
17128;DHT22;8679;50.842;4.322;2023-05-29T13:08:20;26.60;91.90
17128;DHT22;8679;50.842;4.322;2023-05-29T13:10:46;26.90;90.20
17128;DHT22;8679;50.842;4.322;2023-05-29T13:13:12;27.00;88.30
17128;DHT22;8679;50.842;4.322;2023-05-29T13:15:38;27.00;87.70
17128;DHT22;8679;50.842;4.322;2023-05-29T13:18:05;27.20;82.90
17128;DHT22;8679;50.842;4.322;2023-05-29T13:20:31;27.20;77.20
17128;DHT22;8679;50.842;4.322;2023-05-29T13:22:57;27.60;77.10
17128;DHT22;8679;50.842;4.322;2023-05-29T13:25:23;27.80;71.80
17128;DHT22;8679;50.842;4.322;2023-05-29T13:27:51;27.80;69.50
17128;DHT22;8679;50.842;4.322;2023-05-29T13:30:18;28.10;69.30
17128;DHT22;8679;50.842;4.322;2023-05-29T13:32:44;28.00;64.10
17128;DHT22;8679;50.842;4.322;2023-05-29T13:35:10;28.00;63.80
17128;DHT22;8679;50.842;4.322;2023-05-29T13:37:37;28.20;63.70
17128;DHT22;8679;50.842;4.322;2023-05-29T13:40:05;28.50;59.20
17128;DHT22;8679;50.842;4.322;2023-05-29T13:42:30;28.40;58.20
17128;DHT22;8679;50.842;4.322;2023-05-29T13:44:56;28.10;56.80
17128;DHT22;8679;50.842;4.322;2023-05-29T13:47:22;28.20;57.70
17128;DHT22;8679;50.842;4.322;2023-05-29T13:49:48;28.60;54.60
17128;DHT22;8679;50.842;4.322;2023-05-29T13:52:13;29.10;54.80
17128;DHT22;8679;50.842;4.322;2023-05-29T13:54:39;29.20;53.70
17128;DHT22;8679;50.842;4.322;2023-05-29T13:57:06;29.80;48.90
17128;DHT22;8679;50.842;4.322;2023-05-29T13:59:33;29.70;48.40
17128;DHT22;8679;50.842;4.322;2023-05-29T14:01:59;29.90;48.30
17128;DHT22;8679;50.842;4.322;2023-05-29T14:04:25;29.50;43.20
17128;DHT22;8679;50.842;4.322;2023-05-29T14:06:52;29.40;43.90
17128;DHT22;8679;50.842;4.322;2023-05-29T14:09:18;29.10;43.30
17128;DHT22;8679;50.842;4.322;2023-05-29T14:11:52;29.40;44.40
17128;DHT22;8679;50.842;4.322;2023-05-29T14:14:19;29.40;45.50
17128;DHT22;8679;50.842;4.322;2023-05-29T14:16:44;29.60;44.10
17128;DHT22;8679;50.842;4.322;2023-05-29T14:19:10;29.70;40.80
17128;DHT22;8679;50.842;4.322;2023-05-29T14:21:36;30.00;39.60
17128;DHT22;8679;50.842;4.322;2023-05-29T14:24:01;29.90;37.80
17128;DHT22;8679;50.842;4.322;2023-05-29T14:26:27;30.10;38.50
17128;DHT22;8679;50.842;4.322;2023-05-29T14:28:53;30.00;37.50
17128;DHT22;8679;50.842;4.322;2023-05-29T14:31:18;30.20;38.10
17128;DHT22;8679;50.842;4.322;2023-05-29T14:33:44;30.00;36.70
17128;DHT22;8679;50.842;4.322;2023-05-29T14:36:10;29.90;35.20
17128;DHT22;8679;50.842;4.322;2023-05-29T14:38:36;29.50;36.70
17128;DHT22;8679;50.842;4.322;2023-05-29T14:41:02;29.60;35.20
17128;DHT22;8679;50.842;4.322;2023-05-29T14:43:28;29.20;35.10
17128;DHT22;8679;50.842;4.322;2023-05-29T14:45:53;28.90;34.70
17128;DHT22;8679;50.842;4.322;2023-05-29T14:48:19;29.20;36.30
17128;DHT22;8679;50.842;4.322;2023-05-29T14:50:45;29.60;35.70
17128;DHT22;8679;50.842;4.322;2023-05-29T14:53:10;29.60;32.50
17128;DHT22;8679;50.842;4.322;2023-05-29T14:55:36;29.70;34.30
17128;DHT22;8679;50.842;4.322;2023-05-29T14:58:03;29.80;33.20
17128;DHT22;8679;50.842;4.322;2023-05-29T15:00:29;29.70;32.50
17128;DHT22;8679;50.842;4.322;2023-05-29T15:02:55;29.90;31.10
17128;DHT22;8679;50.842;4.322;2023-05-29T15:05:28;29.40;30.20
17128;DHT22;8679;50.842;4.322;2023-05-29T15:07:54;28.80;30.00
17128;DHT22;8679;50.842;4.322;2023-05-29T15:10:25;28.90;31.70
17128;DHT22;8679;50.842;4.322;2023-05-29T15:12:52;28.80;31.00
17128;DHT22;8679;50.842;4.322;2023-05-29T15:15:25;28.60;31.10
17128;DHT22;8679;50.842;4.322;2023-05-29T15:17:52;28.80;32.10
17128;DHT22;8679;50.842;4.322;2023-05-29T15:20:25;28.90;32.10
17128;DHT22;8679;50.842;4.322;2023-05-29T15:22:51;29.10;30.50
17128;DHT22;8679;50.842;4.322;2023-05-29T15:25:18;28.80;29.20
17128;DHT22;8679;50.842;4.322;2023-05-29T15:27:45;28.80;30.00
17128;DHT22;8679;50.842;4.322;2023-05-29T15:30:18;28.60;28.70
17128;DHT22;8679;50.842;4.322;2023-05-29T15:32:45;28.10;29.60
17128;DHT22;8679;50.842;4.322;2023-05-29T15:35:12;27.90;29.90
17128;DHT22;8679;50.842;4.322;2023-05-29T15:37:39;27.90;29.20
17128;DHT22;8679;50.842;4.322;2023-05-29T15:40:06;27.60;30.30
17128;DHT22;8679;50.842;4.322;2023-05-29T15:42:32;27.70;29.10
17128;DHT22;8679;50.842;4.322;2023-05-29T15:44:58;27.60;29.00
17128;DHT22;8679;50.842;4.322;2023-05-29T15:47:24;27.70;29.60
17128;DHT22;8679;50.842;4.322;2023-05-29T15:49:50;27.40;29.20
17128;DHT22;8679;50.842;4.322;2023-05-29T15:52:16;27.20;29.50
17128;DHT22;8679;50.842;4.322;2023-05-29T15:54:42;27.10;29.90
17128;DHT22;8679;50.842;4.322;2023-05-29T15:57:10;26.70;29.30
17128;DHT22;8679;50.842;4.322;2023-05-29T15:59:36;26.30;30.30
17128;DHT22;8679;50.842;4.322;2023-05-29T16:02:01;26.20;30.90
17128;DHT22;8679;50.842;4.322;2023-05-29T16:04:28;26.10;31.50
17128;DHT22;8679;50.842;4.322;2023-05-29T16:06:54;26.00;31.00
17128;DHT22;8679;50.842;4.322;2023-05-29T16:09:20;26.10;30.80
17128;DHT22;8679;50.842;4.322;2023-05-29T16:11:46;26.10;29.90